Time;durP1;ratioP1;P1;durP2;ratioP2;P2;SDS_P1;SDS_P2;PMS_P1;PMS_P2;Temp;Humidity;BMP_temperature;BMP_pressure;BME280_temperature;BME280_humidity;BME280_pressure;Samples;Min_cycle;Max_cycle;Signal;HPM_P1;HPM_P2
2023/12/11 00:01:07;;;;;;;1.23;0.80;;;;;;;;;;5022422;28;20203;-26
2023/12/11 00:03:35;;;;;;;1.53;0.80;;;;;;;;;;4995945;28;20311;-29
2023/12/11 00:06:02;;;;;;;1.07;0.80;;;;;;;;;;5011106;28;20641;-28
2023/12/11 00:08:30;;;;;;;0.60;0.60;;;;;;;;;;5015595;28;20203;-28
2023/12/11 00:10:57;;;;;;;1.20;0.60;;;;;;;;;;5026067;28;20299;-27
2023/12/11 00:13:25;;;;;;;1.67;0.50;;;;;;;;;;5013120;28;20210;-29
2023/12/11 00:15:52;;;;;;;2.07;0.60;;;;;;;;;;5013512;28;20217;-28
2023/12/11 00:18:19;;;;;;;1.27;0.60;;;;;;;;;;5008844;28;20208;-29
2023/12/11 00:20:46;;;;;;;0.97;0.60;;;;;;;;;;5010096;28;20305;-27
2023/12/11 00:23:13;;;;;;;2.03;0.53;;;;;;;;;;5003047;28;20235;-29
2023/12/11 00:25:47;;;;;;;0.50;0.50;;;;;;;;;;5003881;28;20255;-30
2023/12/11 00:28:14;;;;;;;0.47;0.47;;;;;;;;;;5012887;28;20246;-28
2023/12/11 00:30:41;;;;;;;1.93;0.57;;;;;;;;;;5006727;28;20203;-29
2023/12/11 00:33:08;;;;;;;1.43;0.53;;;;;;;;;;5002393;28;20214;-28
2023/12/11 00:35:36;;;;;;;1.00;0.60;;;;;;;;;;5011191;28;20227;-28
2023/12/11 00:38:02;;;;;;;0.50;0.50;;;;;;;;;;4996668;28;20211;-27
2023/12/11 00:40:29;;;;;;;1.67;0.50;;;;;;;;;;5011693;28;20207;-28
2023/12/11 00:42:58;;;;;;;1.87;0.40;;;;;;;;;;5025857;28;20235;-27
2023/12/11 00:45:25;;;;;;;1.30;0.50;;;;;;;;;;5017368;28;20246;-29
2023/12/11 00:47:52;;;;;;;0.80;0.60;;;;;;;;;;5003750;28;20209;-26
2023/12/11 00:50:19;;;;;;;1.80;0.60;;;;;;;;;;5030315;28;20268;-29
2023/12/11 00:52:47;;;;;;;0.77;0.70;;;;;;;;;;5016469;28;20211;-29
2023/12/11 00:55:14;;;;;;;1.07;0.70;;;;;;;;;;5001561;28;20590;-29
2023/12/11 00:57:42;;;;;;;0.50;0.50;;;;;;;;;;5016335;28;20223;-29
2023/12/11 01:00:11;;;;;;;1.80;0.70;;;;;;;;;;5015802;28;20337;-29
2023/12/11 01:02:41;;;;;;;1.50;0.90;;;;;;;;;;5003011;28;20239;-28
2023/12/11 01:05:09;;;;;;;2.20;0.70;;;;;;;;;;5009037;28;20250;-26
2023/12/11 01:07:36;;;;;;;2.20;0.73;;;;;;;;;;5011582;28;20245;-29
2023/12/11 01:10:04;;;;;;;2.53;1.00;;;;;;;;;;5008912;28;20250;-29
2023/12/11 01:12:31;;;;;;;0.97;0.50;;;;;;;;;;5010505;28;20210;-26
2023/12/11 01:14:58;;;;;;;0.60;0.43;;;;;;;;;;5008883;28;20227;-31
2023/12/11 01:17:27;;;;;;;0.40;0.40;;;;;;;;;;5005363;28;20292;-26
2023/12/11 01:19:54;;;;;;;0.63;0.40;;;;;;;;;;5015092;28;20231;-27
2023/12/11 01:22:21;;;;;;;0.97;0.60;;;;;;;;;;5009548;28;20216;-28
2023/12/11 01:24:48;;;;;;;1.23;0.50;;;;;;;;;;5003075;28;20608;-32
2023/12/11 01:27:15;;;;;;;0.60;0.60;;;;;;;;;;5009901;28;20297;-27
2023/12/11 01:29:43;;;;;;;0.57;0.57;;;;;;;;;;5018677;28;20293;-29
2023/12/11 01:32:10;;;;;;;2.07;0.40;;;;;;;;;;5008585;28;20215;-30
2023/12/11 01:34:39;;;;;;;1.27;0.60;;;;;;;;;;5008338;28;20230;-29
2023/12/11 01:37:06;;;;;;;0.67;0.50;;;;;;;;;;5010783;28;21583;-26
2023/12/11 01:39:33;;;;;;;0.47;0.47;;;;;;;;;;4998086;28;20306;-26
2023/12/11 01:42:00;;;;;;;0.77;0.60;;;;;;;;;;5008219;28;20221;-27
2023/12/11 01:44:27;;;;;;;1.93;0.53;;;;;;;;;;5006627;28;20322;-29
2023/12/11 01:46:54;;;;;;;0.40;0.40;;;;;;;;;;4998646;28;20207;-29
2023/12/11 01:49:22;;;;;;;2.07;0.57;;;;;;;;;;5011501;28;20207;-28
2023/12/11 01:51:50;;;;;;;0.77;0.50;;;;;;;;;;5008091;28;20211;-27
2023/12/11 01:54:19;;;;;;;1.90;0.60;;;;;;;;;;5001098;28;20254;-26
2023/12/11 01:56:46;;;;;;;3.33;0.60;;;;;;;;;;5010444;28;20229;-28
2023/12/11 01:59:13;;;;;;;0.50;0.50;;;;;;;;;;5011209;28;20226;-27
2023/12/11 02:01:42;;;;;;;1.20;0.67;;;;;;;;;;5001793;28;20203;-28
2023/12/11 02:04:09;;;;;;;1.23;0.90;;;;;;;;;;5012563;28;20231;-29
2023/12/11 02:06:36;;;;;;;1.03;0.60;;;;;;;;;;5013829;28;20311;-30
2023/12/11 02:09:05;;;;;;;3.10;0.63;;;;;;;;;;4999789;28;20210;-28
2023/12/11 02:11:32;;;;;;;0.63;0.57;;;;;;;;;;5016516;28;20744;-29
2023/12/11 02:13:59;;;;;;;1.17;0.50;;;;;;;;;;5007545;28;20223;-27
2023/12/11 02:16:26;;;;;;;0.73;0.50;;;;;;;;;;5005926;28;20207;-26
2023/12/11 02:18:53;;;;;;;1.17;0.60;;;;;;;;;;5009147;28;20230;-30
2023/12/11 02:21:21;;;;;;;1.33;0.63;;;;;;;;;;5011857;28;20208;-27
2023/12/11 02:23:50;;;;;;;0.50;0.50;;;;;;;;;;5000246;28;20227;-27
2023/12/11 02:26:19;;;;;;;0.27;0.27;;;;;;;;;;5008562;28;20204;-28
2023/12/11 02:28:47;;;;;;;1.07;0.50;;;;;;;;;;5010739;28;20211;-27
2023/12/11 02:31:14;;;;;;;2.10;0.60;;;;;;;;;;5000859;28;20298;-27
2023/12/11 02:33:41;;;;;;;0.53;0.30;;;;;;;;;;5001272;28;20204;-28
2023/12/11 02:36:09;;;;;;;0.20;0.20;;;;;;;;;;5008580;28;20207;-27
2023/12/11 02:38:36;;;;;;;2.00;0.53;;;;;;;;;;4999268;28;20203;-30
2023/12/11 02:41:03;;;;;;;0.40;0.40;;;;;;;;;;5007003;28;20207;-26
2023/12/11 02:43:32;;;;;;;2.07;0.67;;;;;;;;;;5012805;28;20219;-27
2023/12/11 02:45:59;;;;;;;0.67;0.67;;;;;;;;;;5004765;28;20225;-29
2023/12/11 02:48:26;;;;;;;0.33;0.33;;;;;;;;;;5006139;28;20215;-29
2023/12/11 02:50:53;;;;;;;1.80;0.40;;;;;;;;;;5007897;28;20275;-28
2023/12/11 02:53:20;;;;;;;1.40;0.50;;;;;;;;;;4998112;28;20196;-31
2023/12/11 02:55:47;;;;;;;0.83;0.60;;;;;;;;;;5005334;28;20234;-29
2023/12/11 02:58:14;;;;;;;0.80;0.80;;;;;;;;;;5000910;28;20222;-28
2023/12/11 03:00:43;;;;;;;1.00;0.60;;;;;;;;;;5008493;28;20207;-29
2023/12/11 03:03:10;;;;;;;1.47;0.67;;;;;;;;;;5004059;28;20227;-29
2023/12/11 03:05:37;;;;;;;0.63;0.60;;;;;;;;;;5008037;28;20599;-27
2023/12/11 03:08:05;;;;;;;0.60;0.60;;;;;;;;;;5004415;28;20216;-28
2023/12/11 03:10:32;;;;;;;0.60;0.50;;;;;;;;;;5014146;28;20217;-28
2023/12/11 03:13:00;;;;;;;0.43;0.40;;;;;;;;;;5019920;28;20210;-25
2023/12/11 03:15:27;;;;;;;1.90;0.53;;;;;;;;;;5027977;28;20230;-29
2023/12/11 03:17:55;;;;;;;1.00;0.60;;;;;;;;;;5003384;28;20208;-27
2023/12/11 03:20:22;;;;;;;4.73;0.50;;;;;;;;;;5008973;28;20211;-28
2023/12/11 03:22:49;;;;;;;0.50;0.37;;;;;;;;;;5010119;28;20232;-29
2023/12/11 03:25:17;;;;;;;0.40;0.40;;;;;;;;;;5008710;28;20226;-28
2023/12/11 03:27:44;;;;;;;0.40;0.40;;;;;;;;;;5016219;28;20650;-27
2023/12/11 03:30:11;;;;;;;1.70;0.50;;;;;;;;;;5026956;28;20210;-27
2023/12/11 03:32:38;;;;;;;1.00;0.50;;;;;;;;;;5015033;28;20259;-30
2023/12/11 03:35:07;;;;;;;2.17;0.53;;;;;;;;;;5005778;28;20242;-26
2023/12/11 03:37:34;;;;;;;1.70;0.70;;;;;;;;;;5003461;28;20227;-26
2023/12/11 03:40:02;;;;;;;0.43;0.43;;;;;;;;;;5003363;28;20207;-29
2023/12/11 03:42:29;;;;;;;1.23;0.60;;;;;;;;;;5023393;28;20207;-27
2023/12/11 03:44:57;;;;;;;1.00;0.50;;;;;;;;;;5023109;28;20226;-27
2023/12/11 03:47:24;;;;;;;1.43;0.70;;;;;;;;;;5019029;28;20219;-27
2023/12/11 03:49:52;;;;;;;0.73;0.60;;;;;;;;;;5014719;28;20211;-31
2023/12/11 03:52:20;;;;;;;0.57;0.50;;;;;;;;;;5009923;28;20203;-28
2023/12/11 03:54:47;;;;;;;0.50;0.50;;;;;;;;;;5001847;28;20330;-27
2023/12/11 03:57:14;;;;;;;0.83;0.83;;;;;;;;;;5020243;28;20214;-28
2023/12/11 03:59:42;;;;;;;0.93;0.70;;;;;;;;;;5023815;28;20234;-28
2023/12/11 04:02:09;;;;;;;0.93;0.60;;;;;;;;;;4999694;28;20208;-27
2023/12/11 04:04:36;;;;;;;0.80;0.80;;;;;;;;;;5007972;28;20223;-26
2023/12/11 04:07:03;;;;;;;0.60;0.60;;;;;;;;;;5022634;28;20215;-27
2023/12/11 04:09:32;;;;;;;3.53;0.70;;;;;;;;;;4998818;28;20207;-25
2023/12/11 04:11:59;;;;;;;1.53;0.83;;;;;;;;;;5015275;28;20219;-28
2023/12/11 04:14:26;;;;;;;0.63;0.63;;;;;;;;;;5012291;28;20222;-29
2023/12/11 04:16:53;;;;;;;1.70;0.50;;;;;;;;;;5010943;28;20730;-25
2023/12/11 04:19:20;;;;;;;0.70;0.70;;;;;;;;;;5022409;28;20205;-28
2023/12/11 04:21:47;;;;;;;0.87;0.80;;;;;;;;;;5023531;28;20213;-27
2023/12/11 04:24:14;;;;;;;0.50;0.50;;;;;;;;;;5013213;28;20230;-27
2023/12/11 04:26:43;;;;;;;0.73;0.73;;;;;;;;;;5012160;28;20203;-29
2023/12/11 04:29:10;;;;;;;0.50;0.50;;;;;;;;;;5021133;28;20211;-28
2023/12/11 04:31:37;;;;;;;1.30;1.00;;;;;;;;;;5012756;28;20214;-28
2023/12/11 04:34:04;;;;;;;0.77;0.77;;;;;;;;;;5001819;28;20234;-29
2023/12/11 04:36:31;;;;;;;0.67;0.60;;;;;;;;;;5006365;28;20203;-28
2023/12/11 04:38:58;;;;;;;1.33;0.50;;;;;;;;;;4998321;28;20208;-27
2023/12/11 04:41:25;;;;;;;0.50;0.50;;;;;;;;;;5018513;28;20206;-29
2023/12/11 04:43:54;;;;;;;0.90;0.40;;;;;;;;;;5021825;28;20226;-28
2023/12/11 04:46:21;;;;;;;0.93;0.80;;;;;;;;;;5009935;28;20653;-27
2023/12/11 04:48:48;;;;;;;1.27;0.60;;;;;;;;;;5004614;28;20211;-28
2023/12/11 04:51:15;;;;;;;1.57;0.80;;;;;;;;;;5018804;28;20207;-28
2023/12/11 04:53:42;;;;;;;0.67;0.50;;;;;;;;;;5005100;28;20196;-26
2023/12/11 04:56:10;;;;;;;1.33;0.53;;;;;;;;;;5009859;28;20215;-29
2023/12/11 04:58:37;;;;;;;0.60;0.60;;;;;;;;;;5027865;28;20653;-28
2023/12/11 05:01:06;;;;;;;2.53;0.80;;;;;;;;;;5011786;28;20248;-28
2023/12/11 05:03:33;;;;;;;2.23;1.23;;;;;;;;;;5008549;28;20223;-26
2023/12/11 05:06:00;;;;;;;2.33;0.70;;;;;;;;;;5017923;28;20222;-29
2023/12/11 05:08:27;;;;;;;0.70;0.70;;;;;;;;;;5001986;28;20200;-28
2023/12/11 05:10:54;;;;;;;2.53;0.60;;;;;;;;;;5010191;28;20599;-25
2023/12/11 05:13:21;;;;;;;0.50;0.50;;;;;;;;;;5012656;28;20661;-27
2023/12/11 05:15:48;;;;;;;2.10;0.90;;;;;;;;;;5021407;28;20230;-28
2023/12/11 05:18:17;;;;;;;0.80;0.80;;;;;;;;;;5012999;28;20230;-27
2023/12/11 05:20:44;;;;;;;0.77;0.63;;;;;;;;;;5012795;28;20216;-27
2023/12/11 05:23:11;;;;;;;0.60;0.60;;;;;;;;;;5004579;28;20214;-29
2023/12/11 05:25:38;;;;;;;1.40;1.30;;;;;;;;;;5015539;28;20696;-29
2023/12/11 05:28:05;;;;;;;0.97;0.80;;;;;;;;;;5006142;28;20214;-26
2023/12/11 05:30:32;;;;;;;0.80;0.80;;;;;;;;;;5003359;28;20207;-27
2023/12/11 05:33:00;;;;;;;1.23;1.03;;;;;;;;;;5004817;28;20219;-25
2023/12/11 05:35:28;;;;;;;1.07;0.90;;;;;;;;;;5008377;28;20233;-27
2023/12/11 05:37:57;;;;;;;1.10;1.00;;;;;;;;;;4997707;28;20215;-27
2023/12/11 05:40:24;;;;;;;1.10;1.00;;;;;;;;;;5014014;28;20211;-25
2023/12/11 05:42:51;;;;;;;1.00;1.00;;;;;;;;;;5021461;28;20203;-28
2023/12/11 05:45:18;;;;;;;3.73;1.40;;;;;;;;;;5008838;28;20817;-29
2023/12/11 05:47:46;;;;;;;2.10;1.43;;;;;;;;;;5005195;28;20207;-28
2023/12/11 05:50:13;;;;;;;2.50;1.50;;;;;;;;;;5007216;28;20713;-27
2023/12/11 05:52:42;;;;;;;3.63;1.20;;;;;;;;;;5013040;28;20234;-30
2023/12/11 05:55:09;;;;;;;0.80;0.77;;;;;;;;;;5005181;28;20227;-26
2023/12/11 05:57:36;;;;;;;0.90;0.90;;;;;;;;;;5017236;28;20207;-31
2023/12/11 06:00:03;;;;;;;1.10;1.00;;;;;;;;;;5024266;28;20199;-26
2023/12/11 06:02:30;;;;;;;1.67;1.20;;;;;;;;;;5011668;28;20217;-27
2023/12/11 06:04:58;;;;;;;1.13;1.03;;;;;;;;;;5009045;28;20235;-27
2023/12/11 06:07:25;;;;;;;1.83;1.17;;;;;;;;;;5009082;28;20687;-27
2023/12/11 06:09:53;;;;;;;1.07;1.00;;;;;;;;;;5002215;28;20219;-28
2023/12/11 06:12:20;;;;;;;1.07;1.00;;;;;;;;;;5015724;28;20207;-26
2023/12/11 06:14:47;;;;;;;0.90;0.90;;;;;;;;;;5014698;28;20223;-27
2023/12/11 06:17:15;;;;;;;2.73;1.27;;;;;;;;;;5018660;28;20214;-28
2023/12/11 06:19:43;;;;;;;1.73;1.03;;;;;;;;;;5011570;28;20249;-28
2023/12/11 06:22:10;;;;;;;3.43;1.00;;;;;;;;;;5027615;28;20206;-26
2023/12/11 06:24:39;;;;;;;2.33;1.17;;;;;;;;;;4993316;28;20238;-26
2023/12/11 06:27:08;;;;;;;1.70;1.00;;;;;;;;;;5006247;28;20218;-28
2023/12/11 06:29:35;;;;;;;3.70;1.30;;;;;;;;;;5020552;28;20203;-29
2023/12/11 06:32:02;;;;;;;2.47;1.00;;;;;;;;;;4999885;28;20256;-28
2023/12/11 06:34:30;;;;;;;1.07;1.07;;;;;;;;;;5002025;28;20229;-29
2023/12/11 06:36:57;;;;;;;1.50;1.40;;;;;;;;;;5017114;28;20302;-27
2023/12/11 06:39:25;;;;;;;1.53;1.17;;;;;;;;;;4999231;28;20213;-26
2023/12/11 06:41:52;;;;;;;3.60;3.30;;;;;;;;;;5015794;28;20965;-27
2023/12/11 06:44:21;;;;;;;2.57;2.00;;;;;;;;;;5016147;28;20296;-28
2023/12/11 06:46:48;;;;;;;1.57;1.30;;;;;;;;;;5003546;28;20902;-28
2023/12/11 06:49:15;;;;;;;1.57;1.40;;;;;;;;;;5004564;28;20217;-28
2023/12/11 06:51:42;;;;;;;3.63;1.67;;;;;;;;;;5017088;28;20221;-26
2023/12/11 06:54:10;;;;;;;2.47;2.20;;;;;;;;;;4997426;28;20227;-28
2023/12/11 06:56:38;;;;;;;2.00;1.80;;;;;;;;;;5013452;28;20210;-27
2023/12/11 06:59:05;;;;;;;7.07;1.93;;;;;;;;;;5015222;28;20214;-28
2023/12/11 07:01:34;;;;;;;1.50;1.33;;;;;;;;;;5007313;28;20212;-26
2023/12/11 07:04:02;;;;;;;5.03;1.80;;;;;;;;;;4999257;28;20235;-28
2023/12/11 07:06:29;;;;;;;2.70;2.00;;;;;;;;;;5017542;28;20207;-26
2023/12/11 07:08:56;;;;;;;3.00;1.87;;;;;;;;;;4996378;28;20207;-25
2023/12/11 07:11:24;;;;;;;3.73;1.80;;;;;;;;;;5016743;28;20206;-27
2023/12/11 07:13:51;;;;;;;1.57;1.47;;;;;;;;;;5020376;28;20225;-28
2023/12/11 07:16:24;;;;;;;3.50;2.00;;;;;;;;;;5001318;28;20266;-29
2023/12/11 07:18:52;;;;;;;3.73;1.63;;;;;;;;;;5017443;28;20214;-27
2023/12/11 07:21:20;;;;;;;1.77;1.33;;;;;;;;;;5018399;28;20203;-26
2023/12/11 07:23:50;;;;;;;2.30;1.80;;;;;;;;;;5014543;28;20306;-27
2023/12/11 07:26:17;;;;;;;2.40;1.63;;;;;;;;;;5025000;28;20214;-27
2023/12/11 07:28:44;;;;;;;2.63;1.40;;;;;;;;;;5012947;28;20206;-25
2023/12/11 07:31:11;;;;;;;2.57;1.97;;;;;;;;;;5017300;28;20298;-28
2023/12/11 07:33:38;;;;;;;1.60;1.50;;;;;;;;;;5004318;28;20250;-27
2023/12/11 07:36:07;;;;;;;1.90;1.47;;;;;;;;;;5020875;28;20211;-25
2023/12/11 07:38:42;;;;;;;8.03;1.57;;;;;;;;;;4996251;28;20293;-25
2023/12/11 07:41:09;;;;;;;4.90;1.67;;;;;;;;;;5010245;28;20292;-27
2023/12/11 07:43:36;;;;;;;1.90;1.57;;;;;;;;;;5025586;28;20236;-26
2023/12/11 07:46:04;;;;;;;2.13;1.93;;;;;;;;;;5025694;28;20232;-25
2023/12/11 07:48:31;;;;;;;1.63;1.53;;;;;;;;;;5011424;28;20199;-26
2023/12/11 07:50:58;;;;;;;2.47;1.90;;;;;;;;;;5021825;28;20283;-27
2023/12/11 07:53:26;;;;;;;1.70;1.60;;;;;;;;;;5006930;28;20207;-27
2023/12/11 07:55:53;;;;;;;1.83;1.63;;;;;;;;;;5010558;28;20218;-26
2023/12/11 07:58:21;;;;;;;1.70;1.60;;;;;;;;;;5022351;28;20214;-27
2023/12/11 08:00:48;;;;;;;2.00;1.80;;;;;;;;;;5021274;28;20213;-26
2023/12/11 08:03:15;;;;;;;2.37;2.00;;;;;;;;;;5015600;28;20208;-26
2023/12/11 08:05:42;;;;;;;3.83;1.93;;;;;;;;;;5029867;28;20241;-27
2023/12/11 08:08:13;;;;;;;2.43;1.70;;;;;;;;;;4992373;28;20663;-26
2023/12/11 08:10:42;;;;;;;2.87;1.37;;;;;;;;;;5005110;28;20207;-25
2023/12/11 08:13:09;;;;;;;1.77;1.67;;;;;;;;;;5018768;28;20215;-25
2023/12/11 08:15:37;;;;;;;1.47;1.33;;;;;;;;;;5020530;28;20705;-27
2023/12/11 08:18:05;;;;;;;1.87;1.47;;;;;;;;;;5008206;28;20207;-28
2023/12/11 08:20:32;;;;;;;1.70;1.60;;;;;;;;;;5013567;28;20219;-27
2023/12/11 08:22:59;;;;;;;4.83;4.53;;;;;;;;;;5001459;28;20294;-25
2023/12/11 08:25:26;;;;;;;4.00;3.30;;;;;;;;;;5006770;28;20223;-28
2023/12/11 08:27:55;;;;;;;3.70;3.20;;;;;;;;;;5013191;28;20298;-29
2023/12/11 08:30:22;;;;;;;3.30;3.10;;;;;;;;;;5022550;28;20215;-28
2023/12/11 08:32:49;;;;;;;1.70;1.30;;;;;;;;;;4962036;28;1364286;-25
2023/12/11 08:35:16;;;;;;;4.70;4.20;;;;;;;;;;5011832;28;20318;-26
2023/12/11 08:37:43;;;;;;;2.20;2.10;;;;;;;;;;5021513;28;20211;-28
2023/12/11 08:40:13;;;;;;;3.43;2.40;;;;;;;;;;5006584;28;20204;-28
2023/12/11 08:42:40;;;;;;;6.40;6.00;;;;;;;;;;5006732;28;20207;-28
2023/12/11 08:45:09;;;;;;;2.23;2.13;;;;;;;;;;5021498;28;20234;-25
2023/12/11 08:47:36;;;;;;;2.47;1.40;;;;;;;;;;5023433;28;20219;-26
2023/12/11 08:50:03;;;;;;;3.30;3.10;;;;;;;;;;5020031;28;20221;-25
2023/12/11 08:55:34;;;;;;;3.00;2.80;;;;;;;;;;5005340;28;20268;-28
2023/12/11 08:58:01;;;;;;;4.17;2.23;;;;;;;;;;5008437;28;20211;-25
2023/12/11 09:00:29;;;;;;;3.13;2.20;;;;;;;;;;5013157;28;20208;-26
2023/12/11 09:02:56;;;;;;;3.20;2.93;;;;;;;;;;5010634;28;20215;-27
2023/12/11 09:05:23;;;;;;;2.20;2.00;;;;;;;;;;5013085;28;20234;-28
2023/12/11 09:07:50;;;;;;;2.23;1.90;;;;;;;;;;5008221;28;20215;-26
2023/12/11 09:10:17;;;;;;;1.70;1.60;;;;;;;;;;4994839;28;20212;-27
2023/12/11 09:12:45;;;;;;;2.50;2.40;;;;;;;;;;5013601;28;20206;-27
2023/12/11 09:15:12;;;;;;;3.20;2.20;;;;;;;;;;5013963;28;20223;-28
2023/12/11 09:17:40;;;;;;;1.90;1.80;;;;;;;;;;5013786;28;20199;-27
2023/12/11 09:20:09;;;;;;;3.47;3.17;;;;;;;;;;5009987;28;20211;-26
2023/12/11 09:22:37;;;;;;;2.73;2.40;;;;;;;;;;5012954;28;20261;-28
2023/12/11 09:25:04;;;;;;;2.10;2.00;;;;;;;;;;5001086;28;20670;-27
2023/12/11 09:27:31;;;;;;;2.43;2.23;;;;;;;;;;5011369;28;20211;-26
2023/12/11 09:29:58;;;;;;;2.47;1.90;;;;;;;;;;5012401;28;20207;-27
2023/12/11 09:32:25;;;;;;;2.23;1.83;;;;;;;;;;5002057;28;20219;-26
2023/12/11 09:34:54;;;;;;;2.60;1.83;;;;;;;;;;5000878;28;20225;-26
2023/12/11 09:37:21;;;;;;;2.03;1.73;;;;;;;;;;5009131;28;20204;-30
2023/12/11 09:39:49;;;;;;;2.90;1.70;;;;;;;;;;5000288;28;20203;-29
2023/12/11 09:42:16;;;;;;;2.17;1.97;;;;;;;;;;5006898;28;20212;-28
2023/12/11 09:44:46;;;;;;;3.53;2.70;;;;;;;;;;5011736;28;20592;-28
2023/12/11 09:47:15;;;;;;;3.63;2.80;;;;;;;;;;5013002;28;20784;-27
2023/12/11 09:49:42;;;;;;;3.53;2.97;;;;;;;;;;5003566;28;20203;-27
2023/12/11 09:52:10;;;;;;;3.23;2.20;;;;;;;;;;5006342;28;20212;-27
2023/12/11 09:54:39;;;;;;;2.80;1.90;;;;;;;;;;4994916;28;20223;-25
2023/12/11 09:57:11;;;;;;;2.17;1.97;;;;;;;;;;5005042;28;20202;-26
2023/12/11 09:59:39;;;;;;;2.33;1.90;;;;;;;;;;5011243;28;20207;-27
2023/12/11 10:02:07;;;;;;;1.70;1.60;;;;;;;;;;5009740;28;20199;-28
2023/12/11 10:04:34;;;;;;;1.87;1.67;;;;;;;;;;5007171;28;20232;-28
2023/12/11 10:07:01;;;;;;;2.83;1.20;;;;;;;;;;5012301;28;20211;-27
2023/12/11 10:09:30;;;;;;;2.03;1.50;;;;;;;;;;5006099;28;20223;-28
2023/12/11 10:12:00;;;;;;;1.10;1.00;;;;;;;;;;5007486;28;20219;-28
2023/12/11 10:14:29;;;;;;;3.23;1.73;;;;;;;;;;5011957;28;20227;-27
2023/12/11 10:16:57;;;;;;;2.77;2.20;;;;;;;;;;5012947;28;20229;-26
2023/12/11 10:19:33;;;;;;;6.40;2.63;;;;;;;;;;5009880;28;20222;-27
2023/12/11 10:22:01;;;;;;;2.87;1.80;;;;;;;;;;5005342;28;20218;-28
2023/12/11 10:24:30;;;;;;;2.03;1.77;;;;;;;;;;5004821;28;20231;-26
2023/12/11 10:26:59;;;;;;;3.40;1.50;;;;;;;;;;5006552;28;20207;-28
2023/12/11 10:29:26;;;;;;;3.00;1.10;;;;;;;;;;5011558;28;20210;-27
2023/12/11 10:31:54;;;;;;;1.73;1.00;;;;;;;;;;5011998;28;20222;-25
2023/12/11 10:34:41;;;;;;;3.80;0.97;;;;;;;;;;5005907;28;20226;-28
2023/12/11 10:37:08;;;;;;;0.70;0.70;;;;;;;;;;5008448;28;20298;-27
2023/12/11 10:39:37;;;;;;;1.10;0.90;;;;;;;;;;5002550;28;20624;-26
2023/12/11 10:42:14;;;;;;;3.70;0.73;;;;;;;;;;5005225;28;20218;-28
2023/12/11 10:44:42;;;;;;;1.40;1.10;;;;;;;;;;5008672;28;20270;-26
2023/12/11 10:47:09;;;;;;;0.77;0.50;;;;;;;;;;5011582;28;20298;-27
2023/12/11 10:49:36;;;;;;;1.47;0.60;;;;;;;;;;5005986;28;20204;-27
2023/12/11 10:52:03;;;;;;;0.77;0.60;;;;;;;;;;5013783;28;20207;-28
2023/12/11 10:54:30;;;;;;;2.00;0.50;;;;;;;;;;5006805;28;20227;-26
2023/12/11 10:57:02;;;;;;;1.17;0.63;;;;;;;;;;5019218;28;20214;-28
2023/12/11 10:59:31;;;;;;;0.60;0.60;;;;;;;;;;5021272;28;20260;-28
2023/12/11 11:01:59;;;;;;;1.23;0.87;;;;;;;;;;5004051;28;20274;-27
2023/12/11 11:04:27;;;;;;;1.00;0.57;;;;;;;;;;4998521;28;20235;-29
2023/12/11 11:06:55;;;;;;;1.80;0.60;;;;;;;;;;5008175;28;20261;-28
2023/12/11 11:09:28;;;;;;;0.60;0.60;;;;;;;;;;5020845;28;20237;-27
2023/12/11 11:11:58;;;;;;;1.10;0.90;;;;;;;;;;5006677;28;20221;-27
2023/12/11 11:14:43;;;;;;;1.63;0.53;;;;;;;;;;5030302;28;20222;-28
2023/12/11 11:17:11;;;;;;;2.80;0.60;;;;;;;;;;5008533;28;20227;-28
2023/12/11 11:19:38;;;;;;;0.50;0.50;;;;;;;;;;4999944;28;20216;-27
2023/12/11 11:22:20;;;;;;;0.73;0.70;;;;;;;;;;5017192;28;20206;-28
2023/12/11 11:24:48;;;;;;;0.77;0.50;;;;;;;;;;5001142;28;20233;-27
2023/12/11 11:27:34;;;;;;;0.60;0.50;;;;;;;;;;5009877;28;20242;-28
2023/12/11 11:30:03;;;;;;;1.97;0.90;;;;;;;;;;5016848;28;20199;-28
2023/12/11 11:32:45;;;;;;;0.90;0.80;;;;;;;;;;5012950;28;20218;-29
2023/12/11 11:35:32;;;;;;;0.57;0.57;;;;;;;;;;5005865;28;20230;-27
2023/12/11 11:37:59;;;;;;;3.13;0.87;;;;;;;;;;5010980;28;20207;-27
2023/12/11 11:40:34;;;;;;;0.67;0.60;;;;;;;;;;4999891;28;20200;-28
2023/12/11 11:43:01;;;;;;;0.70;0.67;;;;;;;;;;5008759;28;20198;-30
2023/12/11 11:45:30;;;;;;;2.50;0.87;;;;;;;;;;5018216;28;20227;-28
2023/12/11 11:47:57;;;;;;;4.03;0.67;;;;;;;;;;5010166;28;20210;-28
2023/12/11 11:50:24;;;;;;;2.30;0.80;;;;;;;;;;5007002;28;20207;-27
2023/12/11 11:52:54;;;;;;;1.50;0.80;;;;;;;;;;5027320;28;20202;-28
2023/12/11 11:55:24;;;;;;;2.93;0.80;;;;;;;;;;4997239;28;20231;-26
2023/12/11 11:57:51;;;;;;;1.60;0.70;;;;;;;;;;5021483;28;20207;-27
2023/12/11 12:00:22;;;;;;;1.20;1.10;;;;;;;;;;5026578;28;20242;-28
2023/12/11 12:02:57;;;;;;;2.57;0.80;;;;;;;;;;5014810;28;20588;-28
2023/12/11 12:05:37;;;;;;;1.53;0.80;;;;;;;;;;5005655;28;20241;-27
2023/12/11 12:08:08;;;;;;;0.67;0.50;;;;;;;;;;5012316;28;20210;-27
2023/12/11 12:10:41;;;;;;;1.93;0.60;;;;;;;;;;5001628;28;20235;-28
2023/12/11 12:13:23;;;;;;;0.63;0.60;;;;;;;;;;5016423;28;20214;-28
2023/12/11 12:15:52;;;;;;;1.17;0.83;;;;;;;;;;5016245;28;20241;-27
2023/12/11 12:18:21;;;;;;;0.83;0.60;;;;;;;;;;5008578;28;20212;-28
2023/12/11 12:21:01;;;;;;;3.63;0.80;;;;;;;;;;5008597;28;20211;-26
2023/12/11 12:23:29;;;;;;;1.10;0.90;;;;;;;;;;5017745;28;20225;-26
2023/12/11 12:25:58;;;;;;;1.60;0.50;;;;;;;;;;5009697;28;20227;-29
2023/12/11 12:28:26;;;;;;;1.77;0.70;;;;;;;;;;5020939;28;20260;-27
2023/12/11 12:30:53;;;;;;;2.97;0.80;;;;;;;;;;5001823;28;20214;-28
2023/12/11 12:33:21;;;;;;;1.10;0.60;;;;;;;;;;5021680;28;20203;-29
2023/12/11 12:35:49;;;;;;;1.47;0.70;;;;;;;;;;5014778;28;20222;-28
2023/12/11 12:38:16;;;;;;;0.50;0.50;;;;;;;;;;5011334;28;20204;-27
2023/12/11 12:40:43;;;;;;;1.80;0.70;;;;;;;;;;5001062;28;20219;-26
2023/12/11 12:43:11;;;;;;;2.00;0.70;;;;;;;;;;5023862;28;20211;-28
2023/12/11 12:45:38;;;;;;;2.27;0.70;;;;;;;;;;5025561;28;20237;-26
2023/12/11 12:48:06;;;;;;;2.00;1.00;;;;;;;;;;5016099;28;20212;-28
2023/12/11 12:50:34;;;;;;;3.37;0.80;;;;;;;;;;5019510;28;20203;-27
2023/12/11 12:53:05;;;;;;;2.63;0.60;;;;;;;;;;5021798;28;20211;-26
2023/12/11 12:55:33;;;;;;;2.10;0.77;;;;;;;;;;5004521;28;20227;-28
2023/12/11 12:58:00;;;;;;;0.90;0.60;;;;;;;;;;5023480;28;20568;-27
2023/12/11 13:00:27;;;;;;;2.93;0.70;;;;;;;;;;5014133;28;20206;-28
2023/12/11 13:02:55;;;;;;;1.37;0.47;;;;;;;;;;5009277;28;20207;-27
2023/12/11 13:05:22;;;;;;;4.80;0.70;;;;;;;;;;5017321;28;20251;-27
2023/12/11 13:10:57;;;;;;;5.03;1.00;;;;;;;;;;4997799;28;20225;-27
2023/12/11 13:13:25;;;;;;;1.30;0.77;;;;;;;;;;5005964;28;20215;-27
2023/12/11 13:15:52;;;;;;;2.57;0.80;;;;;;;;;;5003306;28;20218;-28
2023/12/11 13:18:19;;;;;;;2.93;1.00;;;;;;;;;;5005806;28;20290;-26
2023/12/11 13:20:46;;;;;;;2.00;0.87;;;;;;;;;;5012922;28;20211;-29
2023/12/11 13:26:02;;;;;;;1.00;0.60;;;;;;;;;;4945403;28;20237;-28
2023/12/11 13:28:29;;;;;;;1.10;0.77;;;;;;;;;;4997836;28;20207;-26
2023/12/11 13:30:57;;;;;;;2.23;0.70;;;;;;;;;;5008851;28;20207;-26
2023/12/11 13:33:27;;;;;;;5.10;1.00;;;;;;;;;;5005242;28;20203;-28
2023/12/11 13:35:54;;;;;;;0.83;0.43;;;;;;;;;;5012060;28;20210;-28
2023/12/11 13:38:21;;;;;;;1.43;0.70;;;;;;;;;;5012334;28;20203;-26
2023/12/11 13:40:55;;;;;;;2.37;0.93;;;;;;;;;;5006405;28;20203;-27
2023/12/11 13:43:25;;;;;;;2.27;0.90;;;;;;;;;;5007315;28;20208;-24
2023/12/11 13:45:52;;;;;;;3.63;1.37;;;;;;;;;;5010517;28;20211;-28
2023/12/11 13:48:19;;;;;;;5.43;1.60;;;;;;;;;;5013237;28;20231;-29
2023/12/11 13:50:46;;;;;;;4.67;1.60;;;;;;;;;;5005171;28;20247;-25
2023/12/11 13:53:14;;;;;;;2.83;1.20;;;;;;;;;;5005834;28;20203;-27
2023/12/11 13:55:41;;;;;;;3.57;0.93;;;;;;;;;;5011740;28;20227;-26
2023/12/11 13:58:08;;;;;;;6.90;1.77;;;;;;;;;;5005817;28;20575;-26
2023/12/11 14:00:36;;;;;;;3.77;1.30;;;;;;;;;;5008695;28;20203;-26
2023/12/11 14:03:03;;;;;;;3.70;1.07;;;;;;;;;;5004515;28;20218;-27
2023/12/11 14:05:31;;;;;;;4.70;0.90;;;;;;;;;;5001866;28;20223;-28
2023/12/11 14:07:59;;;;;;;1.67;0.83;;;;;;;;;;5010746;28;20241;-25
2023/12/11 14:10:26;;;;;;;3.57;0.80;;;;;;;;;;5012605;28;20203;-27
2023/12/11 14:12:53;;;;;;;3.33;1.20;;;;;;;;;;5008167;28;20215;-26
2023/12/11 14:15:20;;;;;;;0.90;0.87;;;;;;;;;;5012255;28;20233;-28
2023/12/11 14:17:48;;;;;;;3.47;1.00;;;;;;;;;;5011793;28;20206;-25
2023/12/11 14:20:15;;;;;;;2.77;0.83;;;;;;;;;;5006707;28;20209;-28
2023/12/11 14:22:42;;;;;;;13.67;8.20;;;;;;;;;;5009103;28;20211;-28
2023/12/11 14:25:10;;;;;;;13.57;8.47;;;;;;;;;;5011818;28;20227;-27
2023/12/11 14:27:37;;;;;;;5.73;2.77;;;;;;;;;;5003686;28;20235;-27
2023/12/11 14:30:05;;;;;;;4.33;1.40;;;;;;;;;;5003682;28;20452;-28
2023/12/11 14:32:32;;;;;;;4.37;3.03;;;;;;;;;;5011274;28;20372;-26
2023/12/11 14:35:01;;;;;;;2.40;1.60;;;;;;;;;;5010303;28;20265;-28
2023/12/11 14:37:28;;;;;;;3.00;1.27;;;;;;;;;;4998173;28;20200;-26
2023/12/11 14:39:55;;;;;;;6.57;1.17;;;;;;;;;;5009406;28;20226;-26
2023/12/11 14:42:23;;;;;;;5.90;1.73;;;;;;;;;;5004174;28;20208;-26
2023/12/11 14:44:50;;;;;;;3.83;1.43;;;;;;;;;;5009225;28;20227;-28
2023/12/11 14:47:17;;;;;;;2.43;1.00;;;;;;;;;;5011361;28;20231;-29
2023/12/11 14:49:45;;;;;;;5.43;2.00;;;;;;;;;;5006498;28;20211;-25
2023/12/11 14:52:13;;;;;;;1.67;1.10;;;;;;;;;;5004802;28;20230;-29
2023/12/11 14:54:40;;;;;;;5.50;1.00;;;;;;;;;;5006882;28;20223;-27
2023/12/11 14:57:07;;;;;;;7.77;1.17;;;;;;;;;;4999300;28;20211;-25